sensor_id;sensor_type;location;lat;lon;timestamp;P1;durP1;ratioP1;P2;durP2;ratioP2
57746;SDS011;43580;44.014;20.466;2022-07-05T00:02:24;28.83;;;25.80;;
57746;SDS011;43580;44.014;20.466;2022-07-05T00:04:50;29.73;;;25.30;;
57746;SDS011;43580;44.014;20.466;2022-07-05T00:07:17;27.83;;;24.83;;
57746;SDS011;43580;44.014;20.466;2022-07-05T00:09:44;27.55;;;24.13;;
57746;SDS011;43580;44.014;20.466;2022-07-05T00:12:10;34.35;;;25.63;;
57746;SDS011;43580;44.014;20.466;2022-07-05T00:14:38;30.08;;;26.15;;
57746;SDS011;43580;44.014;20.466;2022-07-05T00:17:04;28.08;;;24.42;;
57746;SDS011;43580;44.014;20.466;2022-07-05T00:19:30;27.27;;;24.20;;
57746;SDS011;43580;44.014;20.466;2022-07-05T00:21:56;31.58;;;24.70;;
57746;SDS011;43580;44.014;20.466;2022-07-05T00:24:23;30.95;;;26.75;;
57746;SDS011;43580;44.014;20.466;2022-07-05T00:26:49;29.33;;;24.83;;
57746;SDS011;43580;44.014;20.466;2022-07-05T00:29:15;28.20;;;24.70;;
57746;SDS011;43580;44.014;20.466;2022-07-05T00:31:41;28.77;;;23.65;;
57746;SDS011;43580;44.014;20.466;2022-07-05T00:34:07;27.17;;;23.27;;
57746;SDS011;43580;44.014;20.466;2022-07-05T00:36:33;27.65;;;23.58;;
57746;SDS011;43580;44.014;20.466;2022-07-05T00:38:59;28.63;;;24.30;;
57746;SDS011;43580;44.014;20.466;2022-07-05T00:41:28;28.05;;;23.65;;
57746;SDS011;43580;44.014;20.466;2022-07-05T00:44:00;26.17;;;23.15;;
57746;SDS011;43580;44.014;20.466;2022-07-05T00:46:27;29.23;;;23.55;;
57746;SDS011;43580;44.014;20.466;2022-07-05T00:48:53;28.25;;;24.48;;
57746;SDS011;43580;44.014;20.466;2022-07-05T00:51:20;31.67;;;24.50;;
57746;SDS011;43580;44.014;20.466;2022-07-05T00:53:49;31.10;;;25.17;;
57746;SDS011;43580;44.014;20.466;2022-07-05T00:56:16;30.98;;;24.33;;
57746;SDS011;43580;44.014;20.466;2022-07-05T00:58:43;26.20;;;22.95;;
57746;SDS011;43580;44.014;20.466;2022-07-05T01:01:09;31.40;;;25.65;;
57746;SDS011;43580;44.014;20.466;2022-07-05T01:03:36;29.52;;;25.27;;
57746;SDS011;43580;44.014;20.466;2022-07-05T01:06:03;30.33;;;24.92;;
57746;SDS011;43580;44.014;20.466;2022-07-05T01:08:30;30.63;;;25.92;;
57746;SDS011;43580;44.014;20.466;2022-07-05T01:10:58;28.70;;;25.25;;
57746;SDS011;43580;44.014;20.466;2022-07-05T01:13:25;27.98;;;25.05;;
57746;SDS011;43580;44.014;20.466;2022-07-05T01:15:54;30.08;;;26.23;;
57746;SDS011;43580;44.014;20.466;2022-07-05T01:18:20;32.75;;;26.30;;
57746;SDS011;43580;44.014;20.466;2022-07-05T01:20:49;30.35;;;25.42;;
57746;SDS011;43580;44.014;20.466;2022-07-05T01:23:16;28.98;;;25.02;;
57746;SDS011;43580;44.014;20.466;2022-07-05T01:25:43;29.27;;;25.73;;
57746;SDS011;43580;44.014;20.466;2022-07-05T01:28:10;29.95;;;23.90;;
57746;SDS011;43580;44.014;20.466;2022-07-05T01:30:36;35.47;;;24.73;;
57746;SDS011;43580;44.014;20.466;2022-07-05T01:33:04;29.52;;;25.33;;
57746;SDS011;43580;44.014;20.466;2022-07-05T01:35:30;27.23;;;24.23;;
57746;SDS011;43580;44.014;20.466;2022-07-05T01:37:56;34.85;;;25.48;;
57746;SDS011;43580;44.014;20.466;2022-07-05T01:40:23;30.58;;;24.92;;
57746;SDS011;43580;44.014;20.466;2022-07-05T01:42:49;31.75;;;25.38;;
57746;SDS011;43580;44.014;20.466;2022-07-05T01:45:15;28.15;;;24.42;;
57746;SDS011;43580;44.014;20.466;2022-07-05T01:48:00;27.23;;;24.20;;
57746;SDS011;43580;44.014;20.466;2022-07-05T01:50:26;26.73;;;23.98;;
57746;SDS011;43580;44.014;20.466;2022-07-05T01:52:54;31.27;;;27.77;;
57746;SDS011;43580;44.014;20.466;2022-07-05T01:55:24;35.53;;;28.10;;
57746;SDS011;43580;44.014;20.466;2022-07-05T01:57:50;34.67;;;27.50;;
57746;SDS011;43580;44.014;20.466;2022-07-05T02:00:16;31.48;;;27.50;;
57746;SDS011;43580;44.014;20.466;2022-07-05T02:02:42;29.25;;;25.85;;
57746;SDS011;43580;44.014;20.466;2022-07-05T02:05:09;29.77;;;25.10;;
57746;SDS011;43580;44.014;20.466;2022-07-05T02:07:35;28.95;;;25.50;;
57746;SDS011;43580;44.014;20.466;2022-07-05T02:10:01;30.15;;;26.95;;
57746;SDS011;43580;44.014;20.466;2022-07-05T02:12:27;32.65;;;25.55;;
57746;SDS011;43580;44.014;20.466;2022-07-05T02:14:53;31.45;;;25.67;;
57746;SDS011;43580;44.014;20.466;2022-07-05T02:17:19;27.75;;;24.95;;
57746;SDS011;43580;44.014;20.466;2022-07-05T02:19:45;29.55;;;24.92;;
57746;SDS011;43580;44.014;20.466;2022-07-05T02:22:14;31.73;;;27.75;;
57746;SDS011;43580;44.014;20.466;2022-07-05T02:24:41;30.50;;;27.20;;
57746;SDS011;43580;44.014;20.466;2022-07-05T02:27:07;34.00;;;28.75;;
57746;SDS011;43580;44.014;20.466;2022-07-05T02:29:33;31.63;;;26.73;;
57746;SDS011;43580;44.014;20.466;2022-07-05T02:31:59;31.98;;;26.67;;
57746;SDS011;43580;44.014;20.466;2022-07-05T02:34:25;31.08;;;27.70;;
57746;SDS011;43580;44.014;20.466;2022-07-05T02:36:51;32.67;;;28.23;;
57746;SDS011;43580;44.014;20.466;2022-07-05T02:39:20;35.15;;;28.52;;
57746;SDS011;43580;44.014;20.466;2022-07-05T02:41:46;34.33;;;29.20;;
57746;SDS011;43580;44.014;20.466;2022-07-05T02:44:12;35.70;;;30.42;;
57746;SDS011;43580;44.014;20.466;2022-07-05T02:46:40;34.03;;;30.20;;
57746;SDS011;43580;44.014;20.466;2022-07-05T02:49:06;34.08;;;29.92;;
57746;SDS011;43580;44.014;20.466;2022-07-05T02:51:32;38.17;;;30.85;;
57746;SDS011;43580;44.014;20.466;2022-07-05T02:53:59;36.90;;;30.30;;
57746;SDS011;43580;44.014;20.466;2022-07-05T02:56:25;31.10;;;27.80;;
57746;SDS011;43580;44.014;20.466;2022-07-05T02:58:51;32.83;;;27.70;;
57746;SDS011;43580;44.014;20.466;2022-07-05T03:01:17;30.25;;;26.13;;
57746;SDS011;43580;44.014;20.466;2022-07-05T03:03:43;32.30;;;28.85;;
57746;SDS011;43580;44.014;20.466;2022-07-05T03:06:09;34.25;;;30.02;;
57746;SDS011;43580;44.014;20.466;2022-07-05T03:08:35;33.47;;;29.88;;
57746;SDS011;43580;44.014;20.466;2022-07-05T03:11:01;31.30;;;27.63;;
57746;SDS011;43580;44.014;20.466;2022-07-05T03:13:27;33.05;;;26.77;;
57746;SDS011;43580;44.014;20.466;2022-07-05T03:15:56;28.48;;;25.45;;
57746;SDS011;43580;44.014;20.466;2022-07-05T03:18:22;29.73;;;24.73;;
57746;SDS011;43580;44.014;20.466;2022-07-05T03:20:48;29.48;;;23.98;;
57746;SDS011;43580;44.014;20.466;2022-07-05T03:23:14;28.80;;;25.40;;
57746;SDS011;43580;44.014;20.466;2022-07-05T03:25:40;33.40;;;26.48;;
57746;SDS011;43580;44.014;20.466;2022-07-05T03:28:06;29.27;;;26.02;;
57746;SDS011;43580;44.014;20.466;2022-07-05T03:30:32;30.67;;;25.08;;
57746;SDS011;43580;44.014;20.466;2022-07-05T03:32:58;29.23;;;26.13;;
57746;SDS011;43580;44.014;20.466;2022-07-05T03:35:25;28.45;;;25.40;;
57746;SDS011;43580;44.014;20.466;2022-07-05T03:37:51;29.83;;;25.50;;
57746;SDS011;43580;44.014;20.466;2022-07-05T03:40:18;29.30;;;25.75;;
57746;SDS011;43580;44.014;20.466;2022-07-05T03:42:46;29.30;;;25.40;;
57746;SDS011;43580;44.014;20.466;2022-07-05T03:45:12;29.73;;;25.10;;
57746;SDS011;43580;44.014;20.466;2022-07-05T03:47:38;29.08;;;24.92;;
57746;SDS011;43580;44.014;20.466;2022-07-05T03:50:04;28.02;;;24.45;;
57746;SDS011;43580;44.014;20.466;2022-07-05T03:52:31;29.25;;;25.63;;
57746;SDS011;43580;44.014;20.466;2022-07-05T03:54:57;27.25;;;24.27;;
57746;SDS011;43580;44.014;20.466;2022-07-05T03:57:23;29.75;;;25.33;;
57746;SDS011;43580;44.014;20.466;2022-07-05T03:59:49;30.88;;;25.65;;
57746;SDS011;43580;44.014;20.466;2022-07-05T04:02:15;31.13;;;25.88;;
57746;SDS011;43580;44.014;20.466;2022-07-05T04:04:41;34.75;;;26.58;;
57746;SDS011;43580;44.014;20.466;2022-07-05T04:07:07;32.03;;;27.23;;
57746;SDS011;43580;44.014;20.466;2022-07-05T04:09:33;40.35;;;29.05;;
57746;SDS011;43580;44.014;20.466;2022-07-05T04:11:59;44.83;;;28.52;;
57746;SDS011;43580;44.014;20.466;2022-07-05T04:14:26;33.70;;;27.63;;
57746;SDS011;43580;44.014;20.466;2022-07-05T04:16:52;36.72;;;27.25;;
57746;SDS011;43580;44.014;20.466;2022-07-05T04:19:18;30.27;;;26.58;;
57746;SDS011;43580;44.014;20.466;2022-07-05T04:21:46;33.42;;;25.50;;
57746;SDS011;43580;44.014;20.466;2022-07-05T04:24:12;34.97;;;26.15;;
57746;SDS011;43580;44.014;20.466;2022-07-05T04:26:38;31.70;;;26.98;;
57746;SDS011;43580;44.014;20.466;2022-07-05T04:29:04;29.75;;;26.00;;
57746;SDS011;43580;44.014;20.466;2022-07-05T04:31:30;31.17;;;26.70;;
57746;SDS011;43580;44.014;20.466;2022-07-05T04:33:56;35.05;;;28.70;;
57746;SDS011;43580;44.014;20.466;2022-07-05T04:36:23;30.02;;;26.92;;
57746;SDS011;43580;44.014;20.466;2022-07-05T04:38:49;30.00;;;26.83;;
57746;SDS011;43580;44.014;20.466;2022-07-05T04:41:15;34.53;;;28.83;;
57746;SDS011;43580;44.014;20.466;2022-07-05T04:43:41;33.42;;;29.83;;
57746;SDS011;43580;44.014;20.466;2022-07-05T04:46:07;32.00;;;27.65;;
57746;SDS011;43580;44.014;20.466;2022-07-05T04:48:33;34.22;;;30.50;;
57746;SDS011;43580;44.014;20.466;2022-07-05T04:50:59;37.28;;;30.75;;
57746;SDS011;43580;44.014;20.466;2022-07-05T04:53:25;30.08;;;25.63;;
57746;SDS011;43580;44.014;20.466;2022-07-05T04:55:51;32.30;;;27.77;;
57746;SDS011;43580;44.014;20.466;2022-07-05T04:58:17;28.35;;;25.23;;
57746;SDS011;43580;44.014;20.466;2022-07-05T05:00:43;29.63;;;26.42;;
57746;SDS011;43580;44.014;20.466;2022-07-05T05:03:09;33.95;;;25.85;;
57746;SDS011;43580;44.014;20.466;2022-07-05T05:05:35;30.13;;;25.58;;
57746;SDS011;43580;44.014;20.466;2022-07-05T05:08:01;25.27;;;22.52;;
57746;SDS011;43580;44.014;20.466;2022-07-05T05:10:27;28.00;;;23.70;;
57746;SDS011;43580;44.014;20.466;2022-07-05T05:12:53;26.35;;;23.00;;
57746;SDS011;43580;44.014;20.466;2022-07-05T05:15:22;26.77;;;23.20;;
57746;SDS011;43580;44.014;20.466;2022-07-05T05:17:48;24.48;;;21.38;;
57746;SDS011;43580;44.014;20.466;2022-07-05T05:20:15;28.52;;;23.00;;
57746;SDS011;43580;44.014;20.466;2022-07-05T05:22:42;25.73;;;22.42;;
57746;SDS011;43580;44.014;20.466;2022-07-05T05:25:08;25.92;;;23.13;;
57746;SDS011;43580;44.014;20.466;2022-07-05T05:27:55;34.95;;;22.50;;
57746;SDS011;43580;44.014;20.466;2022-07-05T05:30:21;30.90;;;23.38;;
57746;SDS011;43580;44.014;20.466;2022-07-05T05:32:47;27.85;;;23.30;;
57746;SDS011;43580;44.014;20.466;2022-07-05T05:35:13;28.13;;;22.80;;
57746;SDS011;43580;44.014;20.466;2022-07-05T05:37:45;35.17;;;26.52;;
57746;SDS011;43580;44.014;20.466;2022-07-05T05:40:11;26.70;;;22.92;;
57746;SDS011;43580;44.014;20.466;2022-07-05T05:42:37;27.27;;;23.08;;
57746;SDS011;43580;44.014;20.466;2022-07-05T05:45:03;27.77;;;22.73;;
57746;SDS011;43580;44.014;20.466;2022-07-05T05:47:30;30.02;;;22.70;;
57746;SDS011;43580;44.014;20.466;2022-07-05T05:49:56;26.65;;;22.95;;
57746;SDS011;43580;44.014;20.466;2022-07-05T05:52:27;29.98;;;22.35;;
57746;SDS011;43580;44.014;20.466;2022-07-05T05:54:53;31.30;;;22.80;;
57746;SDS011;43580;44.014;20.466;2022-07-05T05:57:19;27.25;;;22.20;;
57746;SDS011;43580;44.014;20.466;2022-07-05T05:59:45;30.17;;;22.63;;
57746;SDS011;43580;44.014;20.466;2022-07-05T06:02:11;24.02;;;21.50;;
57746;SDS011;43580;44.014;20.466;2022-07-05T06:04:37;26.58;;;21.33;;
57746;SDS011;43580;44.014;20.466;2022-07-05T06:07:03;23.80;;;20.92;;
57746;SDS011;43580;44.014;20.466;2022-07-05T06:09:29;30.17;;;21.00;;
57746;SDS011;43580;44.014;20.466;2022-07-05T06:11:55;25.35;;;21.08;;
57746;SDS011;43580;44.014;20.466;2022-07-05T06:14:21;32.40;;;20.58;;
57746;SDS011;43580;44.014;20.466;2022-07-05T06:16:47;23.98;;;20.27;;
57746;SDS011;43580;44.014;20.466;2022-07-05T06:19:13;22.60;;;19.15;;
57746;SDS011;43580;44.014;20.466;2022-07-05T06:21:40;23.20;;;20.80;;
57746;SDS011;43580;44.014;20.466;2022-07-05T06:24:06;25.58;;;20.63;;
57746;SDS011;43580;44.014;20.466;2022-07-05T06:26:37;23.45;;;20.45;;
57746;SDS011;43580;44.014;20.466;2022-07-05T06:29:03;23.27;;;20.60;;
57746;SDS011;43580;44.014;20.466;2022-07-05T06:31:29;24.75;;;20.63;;
57746;SDS011;43580;44.014;20.466;2022-07-05T06:33:55;24.38;;;19.73;;
57746;SDS011;43580;44.014;20.466;2022-07-05T06:36:21;24.92;;;19.65;;
57746;SDS011;43580;44.014;20.466;2022-07-05T06:38:47;29.73;;;20.10;;
57746;SDS011;43580;44.014;20.466;2022-07-05T06:41:15;22.95;;;20.13;;
57746;SDS011;43580;44.014;20.466;2022-07-05T06:43:41;25.45;;;20.67;;
57746;SDS011;43580;44.014;20.466;2022-07-05T06:46:08;25.65;;;20.30;;
57746;SDS011;43580;44.014;20.466;2022-07-05T06:48:34;22.90;;;20.30;;
57746;SDS011;43580;44.014;20.466;2022-07-05T06:51:01;30.08;;;19.63;;
57746;SDS011;43580;44.014;20.466;2022-07-05T06:53:32;24.50;;;19.90;;
57746;SDS011;43580;44.014;20.466;2022-07-05T06:56:00;26.67;;;22.15;;
57746;SDS011;43580;44.014;20.466;2022-07-05T06:58:26;29.33;;;21.13;;
57746;SDS011;43580;44.014;20.466;2022-07-05T07:00:52;22.52;;;19.85;;
57746;SDS011;43580;44.014;20.466;2022-07-05T07:03:18;21.80;;;19.45;;
57746;SDS011;43580;44.014;20.466;2022-07-05T07:05:44;29.33;;;19.30;;
57746;SDS011;43580;44.014;20.466;2022-07-05T07:08:10;30.70;;;22.67;;
57746;SDS011;43580;44.014;20.466;2022-07-05T07:10:55;22.92;;;18.92;;
57746;SDS011;43580;44.014;20.466;2022-07-05T07:13:21;22.20;;;18.23;;
57746;SDS011;43580;44.014;20.466;2022-07-05T07:15:47;24.05;;;19.77;;
57746;SDS011;43580;44.014;20.466;2022-07-05T07:18:13;23.25;;;20.27;;
57746;SDS011;43580;44.014;20.466;2022-07-05T07:20:40;23.67;;;19.27;;
57746;SDS011;43580;44.014;20.466;2022-07-05T07:23:06;23.25;;;19.42;;
57746;SDS011;43580;44.014;20.466;2022-07-05T07:25:32;24.50;;;19.13;;
57746;SDS011;43580;44.014;20.466;2022-07-05T07:27:59;21.10;;;18.02;;
57746;SDS011;43580;44.014;20.466;2022-07-05T07:30:26;20.88;;;16.63;;
57746;SDS011;43580;44.014;20.466;2022-07-05T07:32:53;23.83;;;18.95;;
57746;SDS011;43580;44.014;20.466;2022-07-05T07:35:19;21.30;;;17.95;;
57746;SDS011;43580;44.014;20.466;2022-07-05T07:37:46;20.40;;;16.60;;
57746;SDS011;43580;44.014;20.466;2022-07-05T07:40:12;23.73;;;18.45;;
57746;SDS011;43580;44.014;20.466;2022-07-05T07:42:38;23.52;;;18.10;;
57746;SDS011;43580;44.014;20.466;2022-07-05T07:45:07;25.73;;;18.00;;
57746;SDS011;43580;44.014;20.466;2022-07-05T07:47:34;24.02;;;17.25;;
57746;SDS011;43580;44.014;20.466;2022-07-05T07:50:01;22.02;;;17.05;;
57746;SDS011;43580;44.014;20.466;2022-07-05T07:52:27;23.23;;;17.40;;
57746;SDS011;43580;44.014;20.466;2022-07-05T07:54:55;19.30;;;16.42;;
57746;SDS011;43580;44.014;20.466;2022-07-05T07:57:21;19.25;;;17.25;;
57746;SDS011;43580;44.014;20.466;2022-07-05T07:59:47;23.30;;;16.60;;
57746;SDS011;43580;44.014;20.466;2022-07-05T08:02:13;19.42;;;17.45;;
57746;SDS011;43580;44.014;20.466;2022-07-05T08:04:39;21.13;;;17.65;;
57746;SDS011;43580;44.014;20.466;2022-07-05T08:07:06;20.23;;;16.95;;
57746;SDS011;43580;44.014;20.466;2022-07-05T08:09:32;28.00;;;16.73;;
57746;SDS011;43580;44.014;20.466;2022-07-05T08:11:58;21.83;;;16.90;;
57746;SDS011;43580;44.014;20.466;2022-07-05T08:14:24;23.77;;;17.77;;
57746;SDS011;43580;44.014;20.466;2022-07-05T08:16:50;21.42;;;17.15;;
57746;SDS011;43580;44.014;20.466;2022-07-05T08:19:16;22.85;;;17.17;;
57746;SDS011;43580;44.014;20.466;2022-07-05T08:22:01;25.45;;;17.27;;
57746;SDS011;43580;44.014;20.466;2022-07-05T08:24:27;21.50;;;17.15;;
57746;SDS011;43580;44.014;20.466;2022-07-05T08:26:53;21.55;;;16.88;;
57746;SDS011;43580;44.014;20.466;2022-07-05T08:29:19;21.38;;;16.50;;
57746;SDS011;43580;44.014;20.466;2022-07-05T08:31:47;21.52;;;16.65;;
57746;SDS011;43580;44.014;20.466;2022-07-05T08:34:16;22.80;;;16.33;;
57746;SDS011;43580;44.014;20.466;2022-07-05T08:36:46;20.45;;;15.63;;
57746;SDS011;43580;44.014;20.466;2022-07-05T08:39:12;24.27;;;16.48;;
57746;SDS011;43580;44.014;20.466;2022-07-05T08:41:40;20.75;;;16.38;;
57746;SDS011;43580;44.014;20.466;2022-07-05T08:44:06;30.15;;;16.00;;
57746;SDS011;43580;44.014;20.466;2022-07-05T08:46:33;26.38;;;17.05;;
57746;SDS011;43580;44.014;20.466;2022-07-05T08:49:00;21.75;;;16.60;;
57746;SDS011;43580;44.014;20.466;2022-07-05T08:51:33;24.55;;;16.05;;
57746;SDS011;43580;44.014;20.466;2022-07-05T08:53:59;20.88;;;16.20;;
57746;SDS011;43580;44.014;20.466;2022-07-05T08:56:26;70.00;;;19.25;;
57746;SDS011;43580;44.014;20.466;2022-07-05T08:58:52;22.92;;;14.77;;
57746;SDS011;43580;44.014;20.466;2022-07-05T09:01:18;26.20;;;15.32;;
57746;SDS011;43580;44.014;20.466;2022-07-05T09:03:51;18.40;;;13.93;;
57746;SDS011;43580;44.014;20.466;2022-07-05T09:06:20;23.60;;;15.10;;
57746;SDS011;43580;44.014;20.466;2022-07-05T09:08:47;20.45;;;14.35;;
57746;SDS011;43580;44.014;20.466;2022-07-05T09:11:14;18.77;;;14.70;;
57746;SDS011;43580;44.014;20.466;2022-07-05T09:13:41;17.42;;;13.77;;
57746;SDS011;43580;44.014;20.466;2022-07-05T09:16:08;14.15;;;12.68;;
57746;SDS011;43580;44.014;20.466;2022-07-05T09:24:03;22.05;;;13.82;;
57746;SDS011;43580;44.014;20.466;2022-07-05T09:26:33;16.85;;;13.73;;
57746;SDS011;43580;44.014;20.466;2022-07-05T09:29:00;16.52;;;13.68;;
57746;SDS011;43580;44.014;20.466;2022-07-05T09:31:29;15.25;;;13.18;;
57746;SDS011;43580;44.014;20.466;2022-07-05T09:34:12;16.75;;;13.07;;
57746;SDS011;43580;44.014;20.466;2022-07-05T09:36:51;14.00;;;12.50;;
57746;SDS011;43580;44.014;20.466;2022-07-05T09:39:18;16.83;;;12.40;;
57746;SDS011;43580;44.014;20.466;2022-07-05T09:41:44;16.50;;;12.88;;
57746;SDS011;43580;44.014;20.466;2022-07-05T09:44:10;15.35;;;12.50;;
57746;SDS011;43580;44.014;20.466;2022-07-05T09:46:36;20.02;;;12.82;;
57746;SDS011;43580;44.014;20.466;2022-07-05T09:49:02;19.75;;;13.18;;
57746;SDS011;43580;44.014;20.466;2022-07-05T09:51:28;14.48;;;11.95;;
57746;SDS011;43580;44.014;20.466;2022-07-05T09:53:55;17.55;;;12.20;;
57746;SDS011;43580;44.014;20.466;2022-07-05T09:56:22;20.25;;;13.63;;
57746;SDS011;43580;44.014;20.466;2022-07-05T09:58:51;23.08;;;12.85;;
57746;SDS011;43580;44.014;20.466;2022-07-05T10:01:26;17.13;;;12.43;;
57746;SDS011;43580;44.014;20.466;2022-07-05T10:03:56;17.02;;;12.43;;
57746;SDS011;43580;44.014;20.466;2022-07-05T10:06:24;16.58;;;11.55;;
57746;SDS011;43580;44.014;20.466;2022-07-05T10:08:50;16.40;;;12.82;;
57746;SDS011;43580;44.014;20.466;2022-07-05T10:11:17;15.88;;;12.13;;
57746;SDS011;43580;44.014;20.466;2022-07-05T10:13:44;17.63;;;12.40;;
57746;SDS011;43580;44.014;20.466;2022-07-05T10:16:11;17.58;;;12.88;;
57746;SDS011;43580;44.014;20.466;2022-07-05T10:18:37;16.35;;;12.38;;
57746;SDS011;43580;44.014;20.466;2022-07-05T10:21:07;15.57;;;12.35;;
57746;SDS011;43580;44.014;20.466;2022-07-05T10:23:37;14.52;;;12.77;;
57746;SDS011;43580;44.014;20.466;2022-07-05T10:26:04;22.98;;;14.18;;
57746;SDS011;43580;44.014;20.466;2022-07-05T10:28:31;16.58;;;11.90;;
57746;SDS011;43580;44.014;20.466;2022-07-05T10:30:58;21.05;;;12.80;;
57746;SDS011;43580;44.014;20.466;2022-07-05T10:33:25;17.95;;;12.63;;
57746;SDS011;43580;44.014;20.466;2022-07-05T10:35:52;15.77;;;13.13;;
57746;SDS011;43580;44.014;20.466;2022-07-05T10:38:19;18.30;;;12.30;;
57746;SDS011;43580;44.014;20.466;2022-07-05T10:41:01;19.60;;;12.55;;
57746;SDS011;43580;44.014;20.466;2022-07-05T10:43:27;18.08;;;12.80;;
57746;SDS011;43580;44.014;20.466;2022-07-05T10:45:56;21.48;;;12.75;;
57746;SDS011;43580;44.014;20.466;2022-07-05T10:48:25;17.77;;;11.98;;
57746;SDS011;43580;44.014;20.466;2022-07-05T10:50:53;14.93;;;12.80;;
57746;SDS011;43580;44.014;20.466;2022-07-05T11:06:04;15.68;;;11.73;;
57746;SDS011;43580;44.014;20.466;2022-07-05T11:08:31;18.65;;;12.25;;
57746;SDS011;43580;44.014;20.466;2022-07-05T11:11:22;17.30;;;12.55;;
57746;SDS011;43580;44.014;20.466;2022-07-05T11:13:49;16.73;;;12.30;;
57746;SDS011;43580;44.014;20.466;2022-07-05T11:19:04;23.10;;;12.75;;
57746;SDS011;43580;44.014;20.466;2022-07-05T11:21:30;15.60;;;11.88;;
57746;SDS011;43580;44.014;20.466;2022-07-05T11:26:41;17.95;;;12.25;;
57746;SDS011;43580;44.014;20.466;2022-07-05T11:29:07;16.83;;;12.25;;
57746;SDS011;43580;44.014;20.466;2022-07-05T11:32:06;15.02;;;12.50;;
57746;SDS011;43580;44.014;20.466;2022-07-05T11:34:36;13.50;;;12.00;;
57746;SDS011;43580;44.014;20.466;2022-07-05T11:39:40;17.48;;;11.85;;
57746;SDS011;43580;44.014;20.466;2022-07-05T11:42:10;15.52;;;11.45;;
57746;SDS011;43580;44.014;20.466;2022-07-05T11:44:36;15.93;;;11.18;;
57746;SDS011;43580;44.014;20.466;2022-07-05T11:47:05;14.75;;;10.88;;
57746;SDS011;43580;44.014;20.466;2022-07-05T11:49:32;15.00;;;11.45;;
57746;SDS011;43580;44.014;20.466;2022-07-05T11:52:01;12.90;;;10.70;;
57746;SDS011;43580;44.014;20.466;2022-07-05T11:54:28;15.15;;;10.52;;
57746;SDS011;43580;44.014;20.466;2022-07-05T11:56:54;14.32;;;9.88;;
57746;SDS011;43580;44.014;20.466;2022-07-05T11:59:21;13.10;;;9.70;;
57746;SDS011;43580;44.014;20.466;2022-07-05T12:01:48;12.52;;;10.02;;
57746;SDS011;43580;44.014;20.466;2022-07-05T12:06:52;14.10;;;11.02;;
57746;SDS011;43580;44.014;20.466;2022-07-05T12:09:28;14.60;;;10.52;;
57746;SDS011;43580;44.014;20.466;2022-07-05T12:12:16;31.75;;;13.05;;
57746;SDS011;43580;44.014;20.466;2022-07-05T12:15:01;13.43;;;9.95;;
57746;SDS011;43580;44.014;20.466;2022-07-05T12:17:27;16.42;;;10.52;;
57746;SDS011;43580;44.014;20.466;2022-07-05T12:19:54;11.43;;;10.27;;
57746;SDS011;43580;44.014;20.466;2022-07-05T12:25:05;15.07;;;10.52;;
57746;SDS011;43580;44.014;20.466;2022-07-05T12:27:33;14.75;;;10.18;;
57746;SDS011;43580;44.014;20.466;2022-07-05T12:30:00;15.73;;;10.85;;
57746;SDS011;43580;44.014;20.466;2022-07-05T12:32:27;15.43;;;10.85;;
57746;SDS011;43580;44.014;20.466;2022-07-05T12:34:55;19.42;;;10.30;;
57746;SDS011;43580;44.014;20.466;2022-07-05T12:37:25;15.57;;;10.07;;
57746;SDS011;43580;44.014;20.466;2022-07-05T12:40:06;18.65;;;9.68;;
57746;SDS011;43580;44.014;20.466;2022-07-05T12:42:35;13.00;;;9.13;;
57746;SDS011;43580;44.014;20.466;2022-07-05T12:45:16;19.45;;;10.27;;
57746;SDS011;43580;44.014;20.466;2022-07-05T12:47:53;14.75;;;9.77;;
57746;SDS011;43580;44.014;20.466;2022-07-05T12:50:19;17.05;;;11.07;;
57746;SDS011;43580;44.014;20.466;2022-07-05T12:53:04;16.65;;;12.02;;
57746;SDS011;43580;44.014;20.466;2022-07-05T12:55:50;16.65;;;11.52;;
57746;SDS011;43580;44.014;20.466;2022-07-05T12:58:47;15.95;;;11.52;;
57746;SDS011;43580;44.014;20.466;2022-07-05T13:01:20;15.20;;;11.65;;
57746;SDS011;43580;44.014;20.466;2022-07-05T13:03:54;14.57;;;11.98;;
57746;SDS011;43580;44.014;20.466;2022-07-05T13:06:21;16.25;;;12.73;;
57746;SDS011;43580;44.014;20.466;2022-07-05T13:08:56;26.27;;;20.52;;
57746;SDS011;43580;44.014;20.466;2022-07-05T13:11:31;17.63;;;15.07;;
57746;SDS011;43580;44.014;20.466;2022-07-05T13:14:00;16.17;;;13.68;;
57746;SDS011;43580;44.014;20.466;2022-07-05T13:16:26;19.42;;;13.98;;
57746;SDS011;43580;44.014;20.466;2022-07-05T13:18:52;18.40;;;14.70;;
57746;SDS011;43580;44.014;20.466;2022-07-05T13:21:18;34.03;;;15.50;;
57746;SDS011;43580;44.014;20.466;2022-07-05T13:23:44;21.25;;;14.82;;
57746;SDS011;43580;44.014;20.466;2022-07-05T13:26:11;17.77;;;13.15;;
57746;SDS011;43580;44.014;20.466;2022-07-05T13:28:37;20.15;;;13.32;;
57746;SDS011;43580;44.014;20.466;2022-07-05T13:31:03;22.60;;;14.05;;
57746;SDS011;43580;44.014;20.466;2022-07-05T13:33:31;22.73;;;15.00;;
57746;SDS011;43580;44.014;20.466;2022-07-05T13:35:57;19.63;;;14.60;;
57746;SDS011;43580;44.014;20.466;2022-07-05T13:38:23;19.27;;;14.32;;
57746;SDS011;43580;44.014;20.466;2022-07-05T13:40:49;17.52;;;14.32;;
57746;SDS011;43580;44.014;20.466;2022-07-05T13:43:15;24.83;;;13.85;;
57746;SDS011;43580;44.014;20.466;2022-07-05T13:45:41;15.38;;;13.35;;
57746;SDS011;43580;44.014;20.466;2022-07-05T13:48:07;17.33;;;13.40;;
57746;SDS011;43580;44.014;20.466;2022-07-05T13:50:33;19.33;;;15.05;;
57746;SDS011;43580;44.014;20.466;2022-07-05T13:53:01;18.83;;;14.52;;
57746;SDS011;43580;44.014;20.466;2022-07-05T13:55:28;24.15;;;16.05;;
57746;SDS011;43580;44.014;20.466;2022-07-05T13:57:56;24.38;;;13.50;;
57746;SDS011;43580;44.014;20.466;2022-07-05T14:00:23;22.85;;;14.05;;
57746;SDS011;43580;44.014;20.466;2022-07-05T14:02:50;21.13;;;13.88;;
57746;SDS011;43580;44.014;20.466;2022-07-05T14:05:17;24.05;;;14.30;;
57746;SDS011;43580;44.014;20.466;2022-07-05T14:07:45;22.80;;;14.40;;
57746;SDS011;43580;44.014;20.466;2022-07-05T14:10:11;17.25;;;13.98;;
57746;SDS011;43580;44.014;20.466;2022-07-05T14:12:37;21.83;;;14.93;;
57746;SDS011;43580;44.014;20.466;2022-07-05T14:15:03;19.58;;;13.90;;
57746;SDS011;43580;44.014;20.466;2022-07-05T14:17:29;17.85;;;14.43;;
57746;SDS011;43580;44.014;20.466;2022-07-05T14:19:56;23.73;;;14.23;;
57746;SDS011;43580;44.014;20.466;2022-07-05T14:22:22;19.27;;;12.50;;
57746;SDS011;43580;44.014;20.466;2022-07-05T14:24:48;19.65;;;11.82;;
57746;SDS011;43580;44.014;20.466;2022-07-05T14:27:14;25.42;;;12.30;;
57746;SDS011;43580;44.014;20.466;2022-07-05T14:29:42;26.20;;;12.88;;
57746;SDS011;43580;44.014;20.466;2022-07-05T14:32:08;19.70;;;12.30;;
57746;SDS011;43580;44.014;20.466;2022-07-05T14:34:34;20.08;;;13.02;;
57746;SDS011;43580;44.014;20.466;2022-07-05T14:37:03;31.40;;;14.27;;
57746;SDS011;43580;44.014;20.466;2022-07-05T14:39:29;22.40;;;12.65;;
57746;SDS011;43580;44.014;20.466;2022-07-05T14:41:55;18.80;;;12.35;;
57746;SDS011;43580;44.014;20.466;2022-07-05T14:44:21;20.83;;;11.63;;